createdAt,value
2022-09-11T00:00:42.006Z,3.72
2022-09-11T00:03:12.512Z,3.78
2022-09-11T00:05:44.000Z,5.88
2022-09-11T00:08:20.466Z,5.53
2022-09-11T00:10:52.184Z,3.53
2022-09-11T00:13:25.704Z,5.07
2022-09-11T00:15:55.859Z,3.55
2022-09-11T00:18:28.440Z,5.50
2022-09-11T00:21:00.811Z,4.13
2022-09-11T00:23:33.507Z,3.58
2022-09-11T00:26:06.292Z,4.45
2022-09-11T00:28:37.174Z,3.55
2022-09-11T00:31:10.238Z,4.13
2022-09-11T00:33:40.300Z,4.97
2022-09-11T00:36:15.875Z,3.37
2022-09-11T00:38:48.699Z,3.90
2022-09-11T00:41:22.477Z,3.63
2022-09-11T00:44:04.247Z,4.80
2022-09-11T00:46:41.869Z,5.78
2022-09-11T00:49:24.883Z,6.20
2022-09-11T00:52:00.958Z,3.80
2022-09-11T00:54:38.678Z,3.67
2022-09-11T00:57:11.502Z,3.78
2022-09-11T00:59:45.842Z,4.18
2022-09-11T01:02:27.180Z,4.03
2022-09-11T01:04:59.248Z,5.55
2022-09-11T01:07:32.254Z,4.35
2022-09-11T01:10:05.368Z,4.75
2022-09-11T01:12:44.607Z,4.78
2022-09-11T01:15:24.461Z,3.72
2022-09-11T01:18:06.344Z,4.35
2022-09-11T01:20:53.455Z,5.38
2022-09-11T01:23:42.902Z,4.97
2022-09-11T01:26:41.360Z,5.35
2022-09-11T01:29:22.912Z,4.43
2022-09-11T01:32:02.739Z,5.78
2022-09-11T01:34:40.606Z,8.52
2022-09-11T01:37:17.774Z,3.65
2022-09-11T01:39:54.574Z,5.63
2022-09-11T01:42:27.880Z,5.63
2022-09-11T01:45:00.761Z,5.18
2022-09-11T01:47:33.109Z,6.30
2022-09-11T01:50:07.519Z,5.20
2022-09-11T01:52:45.106Z,3.67
2022-09-11T01:55:20.925Z,4.55
2022-09-11T01:57:55.537Z,6.72
2022-09-11T02:00:28.912Z,3.90
2022-09-11T02:03:03.940Z,6.68
2022-09-11T02:05:43.883Z,5.40
2022-09-11T02:08:24.459Z,5.80
2022-09-11T02:11:03.850Z,4.57
2022-09-11T02:13:42.218Z,4.65
2022-09-11T02:16:22.955Z,4.68
2022-09-11T02:19:03.541Z,3.92
2022-09-11T02:21:34.832Z,5.90
2022-09-11T02:24:05.723Z,3.58
2022-09-11T02:29:11.845Z,5.60
2022-09-11T02:31:45.601Z,4.28
2022-09-11T02:34:18.043Z,4.28
2022-09-11T02:37:07.163Z,6.32
2022-09-11T02:40:02.600Z,5.63
2022-09-11T02:42:47.376Z,5.80
2022-09-11T02:45:35.717Z,3.90
2022-09-11T02:48:32.650Z,5.60
2022-09-11T02:51:11.517Z,5.05
2022-09-11T02:53:51.565Z,4.80
2022-09-11T02:56:34.804Z,5.43
2022-09-11T02:59:11.266Z,5.30
2022-09-11T03:01:55.318Z,5.40
2022-09-11T03:04:34.913Z,5.53
2022-09-11T03:07:06.990Z,3.58
2022-09-11T03:09:37.709Z,3.80
2022-09-11T03:12:14.279Z,4.53
2022-09-11T03:14:44.501Z,4.78
2022-09-11T03:17:14.627Z,5.23
2022-09-11T03:19:47.370Z,4.43
2022-09-11T03:22:17.521Z,3.40
2022-09-11T03:24:48.217Z,5.07
2022-09-11T03:27:18.586Z,5.47
2022-09-11T03:29:48.974Z,8.20
2022-09-11T03:32:19.307Z,4.78
2022-09-11T03:34:52.255Z,4.18
2022-09-11T03:37:22.342Z,3.97
2022-09-11T03:39:54.893Z,3.35
2022-09-11T03:42:25.291Z,6.13
2022-09-11T03:44:55.435Z,4.35
2022-09-11T03:47:25.589Z,4.80
2022-09-11T03:49:59.794Z,5.78
2022-09-11T03:52:30.394Z,7.88
2022-09-11T03:55:00.484Z,5.45
2022-09-11T03:57:30.730Z,4.40
2022-09-11T04:00:01.587Z,6.63
2022-09-11T04:02:37.543Z,4.82
2022-09-11T04:05:12.236Z,4.95
2022-09-11T04:07:43.602Z,4.70
2022-09-11T04:10:14.657Z,6.80
2022-09-11T04:12:44.830Z,5.30
2022-09-11T04:15:15.134Z,4.75
2022-09-11T04:17:45.196Z,7.90
2022-09-11T04:20:18.362Z,5.80
2022-09-11T04:22:49.433Z,5.47
2022-09-11T04:25:19.702Z,5.80
2022-09-11T04:27:49.833Z,5.65
2022-09-11T04:30:22.400Z,4.43
2022-09-11T04:32:53.288Z,4.57
2022-09-11T04:35:27.126Z,5.93
2022-09-11T04:38:00.164Z,11.18
2022-09-11T04:40:30.175Z,5.00
2022-09-11T04:43:01.145Z,5.05
2022-09-11T04:45:33.384Z,4.32
2022-09-11T04:48:06.258Z,4.53
2022-09-11T04:50:38.981Z,5.88
2022-09-11T04:53:24.558Z,6.63
2022-09-11T04:55:55.202Z,4.22
2022-09-11T04:58:25.756Z,4.60
2022-09-11T05:00:55.832Z,7.72
2022-09-11T05:03:26.346Z,6.27
2022-09-11T05:06:01.549Z,7.53
2022-09-11T05:08:32.942Z,8.07
2022-09-11T05:11:05.496Z,7.13
2022-09-11T05:13:36.786Z,6.50
2022-09-11T05:16:09.983Z,6.95
2022-09-11T05:18:40.693Z,9.63
2022-09-11T05:21:18.313Z,7.72
2022-09-11T05:23:52.213Z,7.53
2022-09-11T05:26:24.759Z,9.02
2022-09-11T05:28:57.571Z,7.55
2022-09-11T05:31:29.044Z,8.40
2022-09-11T05:34:00.612Z,9.60
2022-09-11T05:36:35.439Z,9.25
2022-09-11T05:39:07.214Z,8.48
2022-09-11T05:41:37.868Z,11.20
2022-09-11T05:44:08.176Z,8.50
2022-09-11T05:46:40.658Z,9.00
2022-09-11T05:49:10.708Z,8.02
2022-09-11T05:51:45.924Z,13.52
2022-09-11T05:54:16.084Z,10.68
2022-09-11T05:56:48.190Z,10.73
2022-09-11T05:59:27.200Z,10.02
2022-09-11T06:01:57.449Z,10.88
2022-09-11T06:04:40.177Z,13.20
2022-09-11T06:07:14.327Z,9.63
2022-09-11T06:09:46.185Z,10.75
2022-09-11T06:12:16.196Z,12.47
2022-09-11T06:14:46.742Z,15.10
2022-09-11T06:19:48.069Z,17.03
2022-09-11T06:22:22.469Z,14.27
2022-09-11T06:24:54.366Z,16.48
2022-09-11T06:27:25.223Z,15.02
2022-09-11T06:29:56.531Z,15.50
2022-09-11T06:32:26.512Z,15.83
2022-09-11T06:34:59.082Z,14.85
2022-09-11T06:37:31.972Z,14.15
2022-09-11T06:40:03.254Z,15.80
2022-09-11T06:42:34.050Z,16.20
2022-09-11T06:45:04.775Z,17.00
2022-09-11T06:47:35.032Z,17.27
2022-09-11T06:50:06.974Z,17.75
2022-09-11T06:52:50.247Z,21.57
2022-09-11T06:55:30.409Z,18.50
2022-09-11T06:58:07.560Z,19.80
2022-09-11T07:00:40.687Z,22.35
2022-09-11T07:03:16.887Z,18.20
2022-09-11T07:05:49.869Z,19.63
2022-09-11T07:08:24.968Z,19.52
2022-09-11T07:10:55.627Z,17.60
2022-09-11T07:16:03.405Z,22.07
2022-09-11T07:18:37.869Z,20.30
2022-09-11T07:21:14.208Z,15.30
2022-09-11T07:23:51.251Z,16.60
2022-09-11T07:26:23.551Z,18.17
2022-09-11T07:28:57.727Z,15.32
2022-09-11T07:34:00.098Z,16.98
2022-09-11T07:39:05.677Z,20.50
2022-09-11T07:41:52.946Z,17.40
2022-09-11T07:44:28.504Z,15.15
2022-09-11T07:47:00.944Z,18.60
2022-09-11T07:49:33.452Z,23.92
2022-09-11T07:52:03.712Z,20.73
2022-09-11T07:54:51.310Z,19.38
2022-09-11T07:57:24.310Z,18.55
2022-09-11T07:59:54.957Z,16.88
2022-09-11T08:02:25.558Z,21.58
2022-09-11T08:04:56.458Z,19.38
2022-09-11T08:07:26.978Z,16.20
2022-09-11T08:10:23.263Z,15.75
2022-09-11T08:12:50.936Z,19.77
2022-09-11T08:15:21.840Z,20.67
2022-09-11T08:17:52.876Z,20.38
2022-09-11T08:20:22.946Z,15.95
2022-09-11T08:22:53.151Z,17.95
2022-09-11T08:25:25.854Z,16.05
2022-09-11T08:27:55.942Z,17.42
2022-09-11T08:30:27.427Z,15.95
2022-09-11T08:32:57.537Z,12.05
2022-09-11T08:35:28.226Z,13.90
2022-09-11T08:37:58.382Z,11.80
2022-09-11T08:40:32.308Z,12.30
2022-09-11T08:43:06.576Z,11.02
2022-09-11T08:45:38.882Z,9.30
2022-09-11T08:48:11.374Z,14.77
2022-09-11T08:50:45.850Z,11.32
2022-09-11T08:53:21.395Z,10.27
2022-09-11T08:56:03.207Z,9.48
2022-09-11T08:58:44.653Z,9.88
2022-09-11T09:04:27.625Z,7.38
2022-09-11T09:07:12.062Z,8.40
2022-09-11T09:09:54.046Z,6.63
2022-09-11T09:15:21.366Z,9.73
2022-09-11T09:18:00.720Z,6.30
2022-09-11T09:20:37.451Z,9.35
2022-09-11T09:23:19.195Z,8.65
2022-09-11T09:25:52.849Z,9.23
2022-09-11T09:28:29.521Z,9.88
2022-09-11T09:31:06.090Z,6.70
2022-09-11T09:33:38.705Z,8.50
2022-09-11T09:36:17.846Z,6.90
2022-09-11T09:38:49.349Z,18.00
2022-09-11T09:42:03.820Z,9.10
2022-09-11T09:44:56.543Z,6.90
2022-09-11T09:47:26.906Z,6.80
2022-09-11T09:49:59.237Z,9.63
2022-09-11T09:52:36.159Z,11.95
2022-09-11T09:55:17.540Z,8.10
2022-09-11T09:57:48.207Z,6.93
2022-09-11T10:02:56.655Z,7.30
2022-09-11T10:05:31.172Z,9.38
2022-09-11T10:08:03.835Z,10.90
2022-09-11T10:10:38.192Z,12.63
2022-09-11T10:13:25.165Z,10.55
2022-09-11T10:16:02.048Z,11.60
2022-09-11T10:18:42.411Z,13.98
2022-09-11T10:21:37.512Z,13.80
2022-09-11T10:24:26.347Z,14.02
2022-09-11T10:26:59.291Z,17.75
2022-09-11T10:29:32.368Z,16.65
2022-09-11T10:32:06.577Z,14.80
2022-09-11T10:34:41.158Z,14.90
2022-09-11T10:37:27.435Z,14.55
2022-09-11T10:40:08.322Z,14.60
2022-09-11T10:42:40.235Z,16.20
2022-09-11T10:45:18.121Z,17.40
2022-09-11T10:47:51.012Z,16.45
2022-09-11T10:50:29.770Z,15.90
2022-09-11T10:53:19.892Z,18.15
2022-09-11T10:56:00.279Z,30.13
2022-09-11T10:58:36.929Z,28.77
2022-09-11T11:01:07.141Z,23.23
2022-09-11T11:03:39.996Z,20.80
2022-09-11T11:06:26.449Z,22.30
2022-09-11T11:09:17.055Z,22.02
2022-09-11T11:12:05.487Z,19.90
2022-09-11T11:14:59.376Z,16.92
2022-09-11T11:17:43.275Z,17.00
2022-09-11T11:20:30.238Z,18.92
2022-09-11T11:23:22.355Z,18.30
2022-09-11T11:26:06.529Z,21.45
2022-09-11T11:28:58.726Z,22.10
2022-09-11T11:31:44.226Z,23.33
2022-09-11T11:34:36.899Z,24.08
2022-09-11T11:37:18.022Z,21.63
2022-09-11T11:39:57.327Z,25.98
2022-09-11T11:42:31.169Z,22.55
2022-09-11T11:45:07.492Z,25.52
2022-09-11T11:47:42.725Z,25.00
2022-09-11T11:50:31.123Z,27.67
2022-09-11T11:53:13.154Z,26.60
2022-09-11T11:55:58.020Z,22.88
2022-09-11T11:58:43.725Z,21.95
2022-09-11T12:01:25.780Z,21.45
2022-09-11T12:04:04.518Z,24.13
2022-09-11T12:06:35.436Z,25.15
2022-09-11T12:09:11.896Z,26.27
2022-09-11T12:11:42.299Z,29.80
2022-09-11T12:14:32.233Z,25.02
2022-09-11T12:17:21.914Z,24.90
2022-09-11T12:20:18.701Z,24.67
2022-09-11T12:22:50.617Z,24.63
2022-09-11T12:25:54.745Z,20.13
2022-09-11T12:28:27.580Z,19.23
2022-09-11T12:31:07.992Z,18.80
2022-09-11T12:33:58.156Z,17.75
2022-09-11T12:36:36.313Z,18.17
2022-09-11T12:39:27.732Z,14.93
2022-09-11T12:42:42.840Z,16.33
2022-09-11T12:45:35.211Z,13.73
2022-09-11T12:48:09.448Z,18.42
2022-09-11T12:50:40.868Z,17.95
2022-09-11T12:53:22.924Z,22.08
2022-09-11T12:55:59.520Z,20.85
2022-09-11T12:58:36.813Z,22.10
2022-09-11T13:01:20.686Z,19.05
2022-09-11T13:04:01.167Z,20.85
2022-09-11T13:06:43.363Z,18.60
2022-09-11T13:09:24.281Z,17.05
2022-09-11T13:11:57.058Z,17.35
2022-09-11T13:14:52.089Z,16.20
2022-09-11T13:17:31.459Z,15.88
2022-09-11T13:20:24.331Z,14.93
2022-09-11T13:22:58.387Z,14.85
2022-09-11T13:25:31.643Z,13.80
2022-09-11T13:28:04.419Z,12.98
2022-09-11T13:30:35.158Z,11.95
2022-09-11T13:35:43.379Z,11.95
2022-09-11T13:38:21.470Z,12.90
2022-09-11T13:40:58.134Z,11.23
2022-09-11T13:43:32.536Z,8.98
2022-09-11T13:46:24.100Z,40.40
2022-09-11T13:49:01.613Z,12.52
2022-09-11T13:51:33.416Z,8.73
2022-09-11T13:54:11.756Z,8.07
2022-09-11T13:56:48.038Z,9.75
2022-09-11T13:59:41.726Z,9.95
2022-09-11T14:02:41.467Z,8.10
2022-09-11T14:05:20.901Z,10.88
2022-09-11T14:08:01.675Z,8.18
2022-09-11T14:13:15.405Z,10.73
2022-09-11T14:15:50.789Z,10.35
2022-09-11T14:18:35.335Z,7.82
2022-09-11T14:21:15.982Z,8.13
2022-09-11T14:23:50.780Z,8.10
2022-09-11T14:26:22.960Z,10.80
2022-09-11T14:29:06.284Z,8.43
2022-09-11T14:31:40.092Z,9.57
2022-09-11T14:34:20.511Z,8.80
2022-09-11T14:36:59.449Z,9.15
2022-09-11T14:39:36.223Z,12.05
2022-09-11T14:42:10.080Z,14.23
2022-09-11T14:44:42.249Z,9.80
2022-09-11T14:47:19.205Z,5.65
2022-09-11T14:49:50.006Z,8.65
2022-09-11T14:54:55.345Z,6.32
2022-09-11T14:57:33.981Z,6.15
2022-09-11T15:00:04.338Z,4.50
2022-09-11T15:02:34.510Z,4.93
2022-09-11T15:05:04.676Z,4.88
2022-09-11T15:07:37.385Z,4.05
2022-09-11T15:10:08.717Z,4.13
2022-09-11T15:12:38.790Z,3.42
2022-09-11T15:15:10.714Z,4.32
2022-09-11T15:17:40.892Z,5.40
2022-09-11T15:20:12.236Z,3.45
2022-09-11T15:22:44.938Z,4.22
2022-09-11T15:25:15.195Z,3.45
2022-09-11T15:27:45.315Z,3.88
2022-09-11T15:35:18.371Z,3.50
2022-09-11T15:37:51.068Z,3.30
2022-09-11T15:40:21.338Z,3.60
2022-09-11T15:42:52.174Z,6.03
2022-09-11T15:45:22.235Z,4.30
2022-09-11T15:50:27.915Z,3.78
2022-09-11T15:53:02.012Z,3.63
2022-09-11T15:55:32.524Z,4.57
2022-09-11T15:58:03.287Z,4.03
2022-09-11T16:00:33.398Z,5.05
2022-09-11T16:03:03.497Z,5.15
2022-09-11T16:05:33.665Z,4.38
2022-09-11T16:08:06.324Z,7.25
2022-09-11T16:10:39.998Z,6.13
2022-09-11T16:13:10.553Z,5.43
2022-09-11T16:15:40.884Z,5.10
2022-09-11T16:18:12.076Z,6.07
2022-09-11T16:20:44.115Z,4.93
2022-09-11T16:23:16.874Z,5.85
2022-09-11T16:25:46.950Z,6.75
2022-09-11T16:28:17.056Z,7.18
2022-09-11T16:30:51.057Z,6.30
2022-09-11T16:33:23.066Z,7.40
2022-09-11T16:36:03.969Z,8.05
2022-09-11T16:38:39.514Z,5.95
2022-09-11T16:41:15.829Z,6.75
2022-09-11T16:43:48.730Z,10.10
2022-09-11T16:46:21.880Z,8.48
2022-09-11T16:48:54.928Z,9.45
2022-09-11T16:51:26.664Z,8.05
2022-09-11T16:53:59.658Z,9.82
2022-09-11T16:56:30.390Z,8.57
2022-09-11T17:01:31.243Z,7.93
2022-09-11T17:04:01.479Z,8.90
2022-09-11T17:06:32.359Z,9.88
2022-09-11T17:09:06.329Z,7.53
2022-09-11T17:11:37.376Z,8.77
2022-09-11T17:14:08.295Z,9.75
2022-09-11T17:16:38.695Z,9.88
2022-09-11T17:19:10.526Z,8.43
2022-09-11T17:21:40.709Z,10.02
2022-09-11T17:24:14.179Z,8.82
2022-09-11T17:26:44.263Z,9.30
2022-09-11T17:29:14.854Z,10.10
2022-09-11T17:31:44.992Z,9.75
2022-09-11T17:34:15.095Z,13.70
2022-09-11T17:36:45.302Z,9.30
2022-09-11T17:39:17.988Z,10.98
2022-09-11T17:41:48.062Z,9.50
2022-09-11T17:44:18.267Z,9.60
2022-09-11T17:46:48.310Z,9.32
2022-09-11T17:49:18.506Z,10.97
2022-09-11T17:51:49.180Z,10.75
2022-09-11T17:54:22.222Z,10.45
2022-09-11T17:56:52.245Z,10.70
2022-09-11T17:59:22.365Z,11.60
2022-09-11T18:01:52.855Z,8.73
2022-09-11T18:04:22.992Z,11.68
2022-09-11T18:06:53.272Z,10.05
2022-09-11T18:09:26.109Z,11.13
2022-09-11T18:11:56.702Z,9.40
2022-09-11T18:14:27.777Z,7.80
2022-09-11T18:16:57.904Z,9.63
2022-09-11T18:19:28.234Z,11.43
2022-09-11T18:21:59.849Z,11.60
2022-09-11T18:24:33.219Z,10.90
2022-09-11T18:27:05.472Z,14.80
2022-09-11T18:29:35.827Z,14.65
2022-09-11T18:32:06.752Z,14.35
2022-09-11T18:34:37.023Z,12.13
2022-09-11T18:37:07.818Z,9.50
2022-09-11T18:39:40.920Z,14.70
2022-09-11T18:42:11.223Z,9.07
2022-09-11T18:44:41.538Z,10.43
2022-09-11T18:47:11.808Z,14.32
2022-09-11T18:49:42.243Z,13.38
2022-09-11T18:52:14.741Z,16.38
2022-09-11T18:54:47.656Z,15.30
2022-09-11T18:57:17.949Z,16.35
2022-09-11T18:59:49.017Z,15.73
2022-09-11T19:02:19.252Z,16.85
2022-09-11T19:04:49.762Z,27.67
2022-09-11T19:07:20.002Z,17.95
2022-09-11T19:09:54.125Z,15.35
2022-09-11T19:12:24.552Z,16.05
2022-09-11T19:14:55.679Z,17.73
2022-09-11T19:17:26.042Z,15.27
2022-09-11T19:19:56.396Z,15.13
2022-09-11T19:22:28.177Z,19.30
2022-09-11T19:25:01.264Z,10.32
2022-09-11T19:27:32.301Z,16.08
2022-09-11T19:30:02.887Z,16.42
2022-09-11T19:32:33.299Z,11.27
2022-09-11T19:35:04.002Z,13.43
2022-09-11T19:37:34.315Z,11.95
2022-09-11T19:40:07.781Z,15.20
2022-09-11T19:42:38.178Z,13.50
2022-09-11T19:45:10.799Z,12.20
2022-09-11T19:47:41.160Z,11.57
2022-09-11T19:50:17.575Z,14.98
2022-09-11T19:52:47.927Z,15.23
2022-09-11T19:55:20.878Z,12.02
2022-09-11T19:57:51.153Z,16.88
2022-09-11T20:00:22.915Z,15.35
2022-09-11T20:02:53.175Z,10.35
2022-09-11T20:05:23.814Z,12.50
2022-09-11T20:07:54.246Z,11.57
2022-09-11T20:10:27.851Z,12.80
2022-09-11T20:13:00.383Z,14.18
2022-09-11T20:15:31.203Z,15.20
2022-09-11T20:18:01.402Z,12.27
2022-09-11T20:20:31.717Z,12.35
2022-09-11T20:23:02.135Z,13.20
2022-09-11T20:25:35.259Z,16.98
2022-09-11T20:28:06.385Z,16.00
2022-09-11T20:30:37.043Z,14.57
2022-09-11T20:33:07.488Z,16.27
2022-09-11T20:35:38.006Z,16.52
2022-09-11T20:38:08.371Z,15.07
2022-09-11T20:40:44.022Z,17.42
2022-09-11T20:43:14.292Z,15.05
2022-09-11T20:45:48.241Z,14.55
2022-09-11T20:48:18.843Z,14.57
2022-09-11T20:50:50.507Z,15.77
2022-09-11T20:53:22.150Z,15.68
2022-09-11T20:55:55.178Z,15.30
2022-09-11T20:58:25.446Z,15.50
2022-09-11T21:00:55.820Z,16.45
2022-09-11T21:03:26.104Z,14.43
2022-09-11T21:05:57.642Z,18.55
2022-09-11T21:08:28.423Z,16.75
2022-09-11T21:11:05.076Z,18.63
2022-09-11T21:13:38.999Z,16.27
2022-09-11T21:16:11.682Z,15.80
2022-09-11T21:18:43.159Z,21.35
2022-09-11T21:21:13.267Z,17.35
2022-09-11T21:23:43.466Z,17.27
2022-09-11T21:26:18.702Z,18.08
2022-09-11T21:28:48.739Z,17.15
2022-09-11T21:31:19.798Z,17.17
2022-09-11T21:33:50.033Z,18.10
2022-09-11T21:36:20.697Z,24.50
2022-09-11T21:38:50.744Z,18.92
2022-09-11T21:41:23.502Z,18.57
2022-09-11T21:43:53.608Z,18.25
2022-09-11T21:46:23.907Z,17.65
2022-09-11T21:48:54.220Z,17.38
2022-09-11T21:51:25.120Z,18.45
2022-09-11T21:54:01.990Z,18.13
2022-09-11T21:56:36.946Z,17.83
2022-09-11T21:59:07.135Z,15.20
2022-09-11T22:01:38.467Z,16.60
2022-09-11T22:04:08.644Z,16.50
2022-09-11T22:06:38.746Z,17.77
2022-09-11T22:09:08.796Z,15.90
2022-09-11T22:11:41.900Z,17.07
2022-09-11T22:14:12.018Z,16.50
2022-09-11T22:16:42.117Z,15.07
2022-09-11T22:19:12.323Z,18.47
2022-09-11T22:21:42.642Z,19.00
2022-09-11T22:24:12.753Z,18.10
2022-09-11T22:26:45.321Z,15.47
2022-09-11T22:29:15.846Z,17.55
2022-09-11T22:31:45.952Z,17.08
2022-09-11T22:34:16.232Z,18.53
2022-09-11T22:36:49.368Z,19.55
2022-09-11T22:39:19.504Z,19.98
2022-09-11T22:41:52.377Z,17.92
2022-09-11T22:44:22.615Z,22.17
2022-09-11T22:46:52.706Z,19.02
2022-09-11T22:49:22.780Z,22.50
2022-09-11T22:51:52.880Z,18.73
2022-09-11T22:54:22.877Z,16.47
2022-09-11T22:56:55.525Z,18.90
2022-09-11T22:59:25.704Z,20.58
2022-09-11T23:01:55.857Z,17.52
2022-09-11T23:04:26.072Z,18.70
2022-09-11T23:07:08.573Z,20.75
2022-09-11T23:09:40.344Z,20.60
2022-09-11T23:12:13.646Z,18.83
2022-09-11T23:14:43.718Z,19.25
2022-09-11T23:17:13.820Z,19.23
2022-09-11T23:19:43.883Z,23.30
2022-09-11T23:22:14.066Z,18.47
2022-09-11T23:24:44.170Z,19.33
2022-09-11T23:27:16.844Z,22.63
2022-09-11T23:29:46.929Z,22.08
2022-09-11T23:32:16.989Z,20.37
2022-09-11T23:34:47.010Z,19.13
2022-09-11T23:37:16.989Z,18.97
2022-09-11T23:39:47.458Z,18.93
2022-09-11T23:42:20.229Z,19.75
2022-09-11T23:44:50.303Z,19.48
2022-09-11T23:47:20.406Z,21.10
2022-09-11T23:49:51.029Z,21.17
2022-09-11T23:52:21.177Z,21.92
2022-09-11T23:54:51.367Z,24.95
2022-09-11T23:57:24.082Z,18.08
2022-09-11T23:59:54.174Z,19.67
